This is the latest recevied weather packets stored in our database for station/object SV1TGC. If no packets are shown the sender has not sent any weather packets the latest 10 day(s).
| Time | Temp. | Humidity | Pressure | Rain* | Wind** | Luminosity | Snow |
|---|---|---|---|---|---|---|---|
| 1777753233 | 11.67° C | 46% | 1017.1 hPa | 0 mm | - | - | - |
| 1777750533 | 11.67° C | 44% | 1017.2 hPa | 0 mm | - | - | - |
| 1777747833 | 11.67° C | 44% | 1017.2 hPa | 0 mm | - | - | - |
| 1777747234 | 11.67° C | 44% | 1017.2 hPa | 0 mm | - | - | - |
| 1777746335 | 12.22° C | 43% | 1017 hPa | 0 mm | - | - | - |
| 1777744233 | 11.67° C | 45% | 1017 hPa | 0 mm | - | - | - |
| 1777742734 | 12.22° C | 43% | 1016.9 hPa | 0 mm | - | - | - |
| 1777739463 | 12.78° C | 40% | 1016.8 hPa | 0 mm | - | - | - |
| 1777734334 | 12.78° C | 42% | 1017.1 hPa | 0 mm | - | - | - |
| 1777731355 | 12.78° C | 43% | 1017.5 hPa | 0 mm | - | - | - |
| 1777731035 | 12.78° C | 43% | 1017.5 hPa | 0 mm | - | - | - |
| 1777730733 | 12.78° C | 43% | 1017.5 hPa | 0 mm | - | - | - |
| 1777730446 | 12.78° C | 43% | 1017.4 hPa | 0 mm | - | - | - |
| 1777730134 | 12.78° C | 42% | 1017.5 hPa | 0 mm | - | - | - |
| 1777728653 | 13.33° C | 39% | 1017.4 hPa | 0 mm | - | - | - |
| 1777727435 | 13.89° C | 37% | 1017.2 hPa | 0 mm | - | - | - |
| 1777725952 | 13.33° C | 43% | 1017.4 hPa | 0 mm | - | - | - |
| 1777725638 | 13.89° C | 44% | 1017.4 hPa | 0 mm | - | - | - |
| 1777723251 | 14.44° C | 43% | 1017.4 hPa | 0 mm | - | - | - |
| 1777722351 | 15° C | 41% | 1017.6 hPa | 0 mm | - | - | - |
| 1777722033 | 15° C | 40% | 1017.4 hPa | 0 mm | - | - | - |
| 1777716951 | 13.33° C | 50% | 1018 hPa | 0 mm | - | - | - |
| 1777716632 | 13.33° C | 48% | 1018.2 hPa | 0 mm | - | - | - |
| 1777713635 | 15° C | 44% | 1017.8 hPa | 0 mm | - | - | - |
| 1777713343 | 15° C | 44% | 1017.9 hPa | 0 mm | - | - | - |
* Rain latest hour (hover to see other rain measurements)
** Current wind speed in m/s (hover to see current wind gust speed)